Airfield :
LOGIN :

Register | Disclaimer

   EN    FR    IT 

 










Legend :    VFR   Marginal VFR   IFR   Intensive IFR   Very Intensive IFR
Visi :
Ceiling :
>= 8 km
>= 3000ft
5 to 8 km
1000 to 3000 ft
1500m to 5 km
500 to 1000 ft
800 to 1500m
200 to 500 ft
< 800m
< 200 ft
Symbols :   Thunderstorms  Fog  Heavy snow  Heavy precipitations  Wind > 20 kt
SIGMETs :     Misc.  Thunderstorms  Icing  Turbulence  Mountain Waves  Volcanic Ashes







- Airport Elevation : 584 ft
- Download approach charts


LFPV - Villacoublay Vélizy

CURRENT METAR :
  • 201600Z AUTO 28021G32KT 9999 -RADZ BKN015 BKN021 OVC027 10/08 Q1000 TEMPO 4000 -SHRA BKN018TCU

EXPIRED METARs :
  • 201530Z AUTO 28015KT 250V310 9999 BKN016 BKN025 OVC033 11/09 Q0999 TEMPO 29018G40KT 4000 -SHRA BKN018TCU
  • 201500Z AUTO 29020KT 9999 BKN014 BKN024 OVC031 11/09 Q0999 TEMPO 29018G40KT 4000 -SHRA BKN018TCU
  • 201430Z AUTO 28015KT 9999 BKN012 OVC022 11/09 Q0998 TEMPO 29018G40KT 4000 -SHRA BKN018TCU
  • 201400Z AUTO 28014KT 9999 BKN009 OVC013 10/09 Q0998
  • 201330Z AUTO 28016KT 7000 -DZ OVC006 10/09 Q0998 TEMPO 27015G30KT BKN018TCU

TAF TAF LFPV
Valid from the 20 at 15:00 until the 21 at 15:00 UTC


201400Z 2015/2115 27015KT 9999 BKN018
TEMPO 2015/2021 27015G30KT 4000 -SHRA BKN018TCU
PROB40
TEMPO 2015/2021 29018G40KT
BECMG 2103/2105 32005KT BKN010
TEMPO 2105/2109 3000 RA BKN005
No reported NOTAMs for that airfield.
2 SIGMETs reported for the Paris FIR (LFFF) :
 
Severe turbulence
LFFF SIGMET 6 VALID 201600/202000 LFPW
LFFF PARIS FIR/UIR SEV TURB FCST WI N4800 W00015 - N5000 W00015 - N5030 E00045 - N4800 E00245 - N4800 W00015 SFC/FL060 STNR WKN=
Severe turbulence
LFFF SIGMET 5 VALID 201300/201700 LFPW
LFFF PARIS FIR/UIR SEV TURB FCST WI N5030 E00045 - N5115 E00200 - N4945 E00515 - N4915 E00415 - N5030 E00045 FL180/310 MOV SE 50KT NC=



MET'MAP, your aeronautical weather chart ! - Copyright ORBIFLY December 2007 - Disclaimer

ORBIFLY MET'MAP TEAM :

Programming & Development : Alexandra Zaïnal
Concept & Development : Baudouin d'Aumeries
Co-Development & Prog : Marc-Olivier Méhu
Technical & hardware support : Manuel Goepfert

Contact : metmap@orbifly.com




SOURCES & CREDITS :

   NOAA